Time;durP1;ratioP1;P1;durP2;ratioP2;P2;SDS_P1;SDS_P2;PMS_P1;PMS_P2;Temp;Humidity;BMP_temperature;BMP_pressure;BME280_temperature;BME280_humidity;BME280_pressure;Samples;Min_cycle;Max_cycle;Signal;HPM_P1;HPM_P2
2023/02/06 00:01:59;;;;;;;16.70;9.52;;;;;;;-3.10;67.72;100287.25;4978752;28;20387;-80
2023/02/06 00:04:24;;;;;;;17.52;11.02;;;;;;;-3.03;67.84;100296.22;4979153;28;20081;-79
2023/02/06 00:06:50;;;;;;;20.90;10.60;;;;;;;-3.08;67.94;100300.69;4994627;28;20521;-82
2023/02/06 00:09:15;;;;;;;21.38;11.00;;;;;;;-3.15;67.91;100296.13;4994666;28;20022;-82
2023/02/06 00:11:41;;;;;;;17.25;9.38;;;;;;;-3.03;67.91;100301.69;4989106;28;20023;-79
2023/02/06 00:14:06;;;;;;;18.08;10.18;;;;;;;-3.11;67.43;100304.72;4988873;28;20026;-83
2023/02/06 00:16:33;;;;;;;17.77;10.52;;;;;;;-3.08;67.85;100298.81;4978439;28;20022;-80
2023/02/06 00:19:00;;;;;;;21.80;10.73;;;;;;;-3.08;67.70;100304.28;5010442;28;20034;-81
2023/02/06 00:21:27;;;;;;;28.15;12.60;;;;;;;-3.01;67.76;100309.69;5012667;28;20021;-81
2023/02/06 00:23:54;;;;;;;21.90;9.60;;;;;;;-3.01;67.60;100310.56;5014235;28;20095;-80
2023/02/06 00:26:20;;;;;;;14.25;9.30;;;;;;;-3.14;67.66;100316.09;5013904;28;20022;-82
2023/02/06 00:28:47;;;;;;;15.20;10.02;;;;;;;-3.10;67.81;100318.19;5003795;28;20041;-82
2023/02/06 00:31:13;;;;;;;19.80;10.10;;;;;;;-3.05;67.85;100322.16;4990144;28;20053;-81
2023/02/06 00:33:39;;;;;;;17.63;9.27;;;;;;;-3.05;66.83;100316.69;4993353;28;20073;-78
2023/02/06 00:36:05;;;;;;;17.50;9.55;;;;;;;-2.98;67.46;100321.03;4992999;28;20026;-79
2023/02/06 00:38:30;;;;;;;12.15;7.95;;;;;;;-2.78;67.59;100317.25;4990977;28;20059;-79
2023/02/06 00:40:56;;;;;;;16.15;8.90;;;;;;;-2.82;66.84;100321.53;4994095;28;20058;-77
2023/02/06 00:43:22;;;;;;;14.70;7.85;;;;;;;-2.90;67.43;100313.59;4992060;28;20021;-79
2023/02/06 00:45:55;;;;;;;11.90;7.53;;;;;;;-2.91;68.13;100333.81;4984930;28;20138;-78
2023/02/06 00:48:21;;;;;;;12.93;8.70;;;;;;;-2.89;67.84;100334.47;4986680;28;20429;-79
2023/02/06 00:50:48;;;;;;;13.75;8.90;;;;;;;-3.06;68.36;100334.19;4992628;28;20045;-76
2023/02/06 00:53:14;;;;;;;12.02;8.48;;;;;;;-3.10;69.01;100328.31;4993695;28;20113;-79
2023/02/06 00:55:39;;;;;;;14.10;9.45;;;;;;;-3.02;68.80;100330.75;4992499;28;20110;-80
2023/02/06 00:58:05;;;;;;;14.52;8.23;;;;;;;-3.16;68.87;100335.50;4992169;28;20030;-77
2023/02/06 01:00:30;;;;;;;12.02;8.15;;;;;;;-3.12;69.26;100330.44;4993636;28;20496;-78
2023/02/06 01:02:56;;;;;;;11.30;7.78;;;;;;;-3.11;69.03;100324.72;4973408;28;20038;-80
2023/02/06 01:05:21;;;;;;;14.20;8.02;;;;;;;-3.16;69.14;100343.72;4979747;28;20037;-80
2023/02/06 01:07:47;;;;;;;12.50;7.85;;;;;;;-3.17;69.05;100335.72;4993531;28;20037;-80
2023/02/06 01:10:13;;;;;;;12.27;7.93;;;;;;;-3.23;69.27;100339.38;4992168;28;20041;-78
2023/02/06 01:12:38;;;;;;;12.07;7.45;;;;;;;-3.22;69.34;100335.56;4990199;28;20201;-83
2023/02/06 01:15:05;;;;;;;12.95;7.68;;;;;;;-3.22;68.91;100335.56;4992758;28;20053;-81
2023/02/06 01:17:32;;;;;;;11.68;7.57;;;;;;;-3.25;69.36;100321.28;4984947;28;20035;-81
2023/02/06 01:19:58;;;;;;;12.13;7.78;;;;;;;-3.29;69.53;100320.03;4974058;28;20035;-82
2023/02/06 01:22:24;;;;;;;12.05;7.63;;;;;;;-3.33;69.96;100324.28;4974088;28;20443;-82
2023/02/06 01:24:49;;;;;;;14.07;8.25;;;;;;;-3.34;69.63;100316.28;4992597;28;20038;-82
2023/02/06 01:27:15;;;;;;;15.32;8.30;;;;;;;-3.31;70.00;100316.66;4992481;28;20061;-82
2023/02/06 01:29:40;;;;;;;14.70;7.97;;;;;;;-3.39;69.86;100311.47;4992081;28;20041;-82
2023/02/06 01:32:06;;;;;;;12.23;6.82;;;;;;;-3.44;69.78;100312.16;4990953;28;20053;-82
2023/02/06 01:34:31;;;;;;;10.05;6.88;;;;;;;-3.52;70.23;100317.88;4975877;28;20073;-81
2023/02/06 01:36:57;;;;;;;10.13;7.47;;;;;;;-3.62;70.75;100314.78;4973666;28;20027;-83
2023/02/06 01:39:22;;;;;;;11.48;7.50;;;;;;;-3.67;70.85;100316.28;4972501;28;20409;-83
2023/02/06 01:41:49;;;;;;;10.57;6.45;;;;;;;-3.68;70.93;100311.88;4980811;28;20030;-78
2023/02/06 01:44:23;;;;;;;12.20;7.93;;;;;;;-3.64;71.51;100322.38;4992548;28;20030;-76
2023/02/06 01:46:51;;;;;;;15.80;8.57;;;;;;;-3.68;72.10;100324.72;4989869;28;20095;-78
2023/02/06 01:49:34;;;;;;;11.32;7.45;;;;;;;-3.67;71.85;100318.19;4987237;28;20035;-80
2023/02/06 01:52:06;;;;;;;15.13;8.30;;;;;;;-3.58;71.52;100314.13;4972331;28;20037;-80
2023/02/06 01:54:33;;;;;;;15.45;8.18;;;;;;;-3.62;71.43;100321.09;4973470;28;20413;-80
2023/02/06 01:57:03;;;;;;;13.70;8.55;;;;;;;-3.48;71.16;100329.22;4973384;28;20058;-78
2023/02/06 01:59:29;;;;;;;10.65;7.00;;;;;;;-3.18;71.58;100325.84;4972881;28;20034;-79
2023/02/06 02:01:55;;;;;;;10.60;6.97;;;;;;;-3.08;72.08;100323.44;4973430;28;20027;-78
2023/02/06 02:04:25;;;;;;;12.15;6.90;;;;;;;-3.01;71.73;100321.50;4976472;28;20508;-78
2023/02/06 02:06:56;;;;;;;;;;;;;;;-2.86;69.89;100323.03;4985222;28;20038;-78
2023/02/06 02:09:22;;;;;;;11.10;6.75;;;;;;;-3.30;69.97;100336.69;4992506;28;19909;-78
2023/02/06 02:11:47;;;;;;;9.43;6.90;;;;;;;-3.43;70.63;100319.28;4992493;28;20084;-78
2023/02/06 02:14:14;;;;;;;10.50;6.40;;;;;;;-3.54;70.35;100325.47;4991138;28;20033;-80
2023/02/06 02:16:52;;;;;;;12.27;7.30;;;;;;;-3.47;70.33;100339.94;4986693;28;20038;-79
2023/02/06 02:19:42;;;;;;;15.20;7.47;;;;;;;-3.49;70.89;100342.06;4972759;28;20531;-77
2023/02/06 02:22:22;;;;;;;12.32;6.70;;;;;;;-3.41;69.67;100339.06;4991796;28;20062;-79
2023/02/06 02:25:20;;;;;;;10.32;6.63;;;;;;;-3.41;69.60;100343.69;4991075;28;20052;-77
2023/02/06 02:28:07;;;;;;;11.60;6.80;;;;;;;-3.68;70.82;100347.44;4990991;28;20041;-78
2023/02/06 02:30:50;;;;;;;10.48;6.80;;;;;;;-3.64;71.10;100344.25;4990101;28;20081;-81
2023/02/06 02:33:52;;;;;;;12.35;6.80;;;;;;;-3.44;71.27;100350.44;4990734;28;20606;-79
2023/02/06 02:36:30;;;;;;;10.35;6.38;;;;;;;-3.07;70.50;100349.75;4990651;28;20421;-78
2023/02/06 02:39:14;;;;;;;9.50;6.18;;;;;;;-3.40;70.27;100348.09;4971655;28;20058;-79
2023/02/06 02:41:51;;;;;;;10.05;6.57;;;;;;;-3.79;70.95;100352.75;4992098;28;20033;-79
2023/02/06 02:44:30;;;;;;;10.93;6.68;;;;;;;-3.80;71.56;100362.84;4990755;28;20022;-78
2023/02/06 02:47:00;;;;;;;12.52;7.72;;;;;;;-3.72;71.53;100367.22;4991944;28;20569;-77
2023/02/06 02:49:27;;;;;;;;;;;;;;;-3.64;71.20;100358.75;4990494;28;20057;-80
2023/02/06 02:51:53;;;;;;;10.23;6.93;;;;;;;-3.83;71.38;100350.44;4988545;28;19917;-80
2023/02/06 02:54:19;;;;;;;10.13;7.40;;;;;;;-3.89;72.10;100345.03;4972751;28;20383;-78
2023/02/06 02:56:45;;;;;;;9.77;5.97;;;;;;;-3.98;71.72;100355.38;4973735;28;20085;-76
2023/02/06 02:59:24;;;;;;;11.70;7.20;;;;;;;-4.08;71.56;100358.53;4993904;28;20149;-79
2023/02/06 03:02:00;;;;;;;10.07;6.80;;;;;;;-4.12;71.12;100352.66;4995721;28;20104;-78
2023/02/06 03:04:46;;;;;;;15.32;6.95;;;;;;;-4.35;70.95;100349.59;4994219;28;20040;-81
2023/02/06 03:07:21;;;;;;;9.10;6.10;;;;;;;-4.41;70.53;100346.66;4981857;28;20031;-81
2023/02/06 03:10:05;;;;;;;9.63;5.85;;;;;;;-4.38;69.30;100346.22;4978209;28;20502;-81
2023/02/06 03:12:45;;;;;;;9.40;5.47;;;;;;;-4.59;69.40;100361.00;4976286;28;20031;-83
2023/02/06 03:15:29;;;;;;;11.70;5.95;;;;;;;-4.60;68.50;100356.59;4976305;28;20035;-80
2023/02/06 03:18:19;;;;;;;14.23;6.78;;;;;;;-4.54;69.37;100353.00;4978167;28;20437;-81
2023/02/06 03:20:47;;;;;;;16.05;7.45;;;;;;;-4.50;68.59;100356.13;4984769;28;20039;-80
2023/02/06 03:23:19;;;;;;;10.90;7.10;;;;;;;-4.45;69.07;100341.84;4987016;28;20456;-79
2023/02/06 03:25:47;;;;;;;18.17;8.02;;;;;;;-4.48;68.51;100354.03;4994295;28;20433;-82
2023/02/06 03:28:19;;;;;;;10.60;6.40;;;;;;;-4.72;68.35;100350.91;4994324;28;20033;-81
2023/02/06 03:30:49;;;;;;;11.63;7.35;;;;;;;-4.80;68.98;100348.44;4977674;28;20425;-81
2023/02/06 03:33:18;;;;;;;10.60;6.75;;;;;;;-4.71;68.72;100352.59;4983739;28;20038;-82
2023/02/06 03:35:45;;;;;;;13.38;7.65;;;;;;;-4.91;69.68;100340.88;4995350;28;20030;-82
2023/02/06 03:38:11;;;;;;;15.20;8.23;;;;;;;-4.85;69.92;100350.94;4995434;28;20026;-84
2023/02/06 03:40:39;;;;;;;20.48;9.65;;;;;;;-4.98;69.57;100347.16;4993721;28;20064;-82
2023/02/06 03:43:07;;;;;;;9.40;6.85;;;;;;;-5.13;70.28;100350.13;4988473;28;20023;-82
2023/02/06 03:45:59;;;;;;;10.77;6.63;;;;;;;-4.96;71.04;100366.91;4993810;28;20442;-82
2023/02/06 03:48:31;;;;;;;12.57;7.50;;;;;;;-5.00;71.16;100364.81;4992660;28;20035;-81
2023/02/06 03:51:01;;;;;;;23.75;11.65;;;;;;;-5.12;70.86;100361.88;4995603;28;20034;-83
2023/02/06 03:53:28;;;;;;;16.40;7.78;;;;;;;-5.05;68.93;100372.78;4995389;28;20030;-82
2023/02/06 03:56:03;;;;;;;11.20;6.40;;;;;;;-5.05;69.32;100381.81;4995424;28;20026;-83
2023/02/06 03:58:29;;;;;;;11.20;6.45;;;;;;;-5.07;69.03;100382.03;4994754;28;20216;-82
2023/02/06 04:00:55;;;;;;;9.45;5.43;;;;;;;-5.12;70.79;100394.59;4995110;28;20394;-83
2023/02/06 04:03:21;;;;;;;7.95;5.38;;;;;;;-5.04;71.83;100378.03;4980622;28;20118;-79
2023/02/06 04:05:47;;;;;;;14.80;7.50;;;;;;;-5.19;73.12;100399.22;4974255;28;20022;-79
2023/02/06 04:08:13;;;;;;;18.15;9.30;;;;;;;-5.20;74.73;100401.09;4973680;28;20026;-87
2023/02/06 04:10:38;;;;;;;26.13;12.55;;;;;;;-5.17;75.89;100402.59;4975791;28;20030;-87
2023/02/06 04:13:04;;;;;;;21.48;9.55;;;;;;;-5.09;76.62;100400.50;4978557;28;20026;-87
2023/02/06 04:15:29;;;;;;;20.42;9.65;;;;;;;-5.07;76.73;100406.59;4986447;28;20512;-87
2023/02/06 04:17:54;;;;;;;16.00;9.02;;;;;;;-5.05;76.29;100403.66;4989295;28;20403;-86
2023/02/06 04:20:20;;;;;;;22.13;12.07;;;;;;;-5.12;76.48;100409.09;4989307;28;20023;-87
2023/02/06 04:22:46;;;;;;;17.17;9.85;;;;;;;-5.16;76.69;100410.53;4975335;28;20023;-86
2023/02/06 04:25:11;;;;;;;24.55;10.88;;;;;;;-5.08;76.45;100412.22;4974127;28;20529;-86
2023/02/06 04:27:37;;;;;;;16.00;9.65;;;;;;;-5.19;76.64;100404.66;4974464;28;20096;-87
2023/02/06 04:30:06;;;;;;;28.98;10.38;;;;;;;-5.16;77.12;100410.53;4984965;28;20034;-87
2023/02/06 04:32:31;;;;;;;17.13;9.95;;;;;;;-5.22;76.60;100412.22;4992599;28;20072;-85
2023/02/06 04:34:57;;;;;;;42.85;9.98;;;;;;;-5.25;76.73;100415.38;4993676;28;20050;-87
2023/02/06 04:37:22;;;;;;;20.98;9.70;;;;;;;-5.11;74.87;100412.66;4993877;28;20034;-81
2023/02/06 04:39:48;;;;;;;18.70;8.45;;;;;;;-5.10;74.29;100414.34;4975481;28;20035;-85
2023/02/06 04:42:13;;;;;;;16.00;9.50;;;;;;;-5.27;73.24;100412.00;4974969;28;20054;-84
2023/02/06 04:44:39;;;;;;;13.45;7.70;;;;;;;-5.40;73.46;100415.53;4977406;28;20045;-86
2023/02/06 04:47:05;;;;;;;17.20;8.57;;;;;;;-5.62;71.53;100412.13;4992250;28;20061;-87
2023/02/06 04:49:30;;;;;;;17.80;9.18;;;;;;;-5.41;65.29;100429.41;4993085;28;20034;-85
2023/02/06 04:51:56;;;;;;;15.27;7.70;;;;;;;-5.39;64.91;100424.56;4995407;28;20038;-84
2023/02/06 04:54:22;;;;;;;12.75;8.15;;;;;;;-5.32;64.58;100425.41;4995303;28;20027;-82
2023/02/06 04:56:47;;;;;;;13.77;8.80;;;;;;;-5.31;65.70;100429.84;4982775;28;20031;-82
2023/02/06 04:59:13;;;;;;;15.18;7.40;;;;;;;-5.33;67.17;100442.00;4973728;28;20498;-81
2023/02/06 05:01:39;;;;;;;13.98;6.82;;;;;;;-5.50;67.96;100435.03;4976986;28;20424;-83
2023/02/06 05:04:05;;;;;;;22.50;7.43;;;;;;;-5.62;69.90;100444.84;4994448;28;20410;-84
2023/02/06 05:06:30;;;;;;;19.27;9.25;;;;;;;-5.60;70.82;100455.56;4994247;28;20026;-85
2023/02/06 05:08:59;;;;;;;43.63;20.17;;;;;;;-5.47;72.02;100447.44;4992467;28;20030;-81
2023/02/06 05:11:25;;;;;;;39.00;21.42;;;;;;;-5.47;71.83;100461.06;4993697;28;20206;-81
2023/02/06 05:13:51;;;;;;;29.23;16.88;;;;;;;-5.47;72.86;100455.59;4986101;28;20023;-80
2023/02/06 05:16:17;;;;;;;26.33;15.32;;;;;;;-5.38;72.35;100453.53;4970760;28;20038;-83
2023/02/06 05:18:43;;;;;;;28.40;15.70;;;;;;;-5.44;72.79;100457.06;4992601;28;20026;-81
2023/02/06 05:21:10;;;;;;;25.35;14.50;;;;;;;-5.37;73.31;100466.13;4991797;28;20033;-82
2023/02/06 05:23:39;;;;;;;30.00;16.52;;;;;;;-5.34;72.66;100456.69;4976412;28;20502;-86
2023/02/06 05:26:05;;;;;;;28.75;15.40;;;;;;;-5.18;72.33;100471.84;4989670;28;20033;-85
2023/02/06 05:28:34;;;;;;;27.95;13.88;;;;;;;-5.14;71.90;100462.19;4973110;28;20038;-81
2023/02/06 05:31:00;;;;;;;20.58;11.20;;;;;;;-5.16;71.91;100470.56;4986944;28;20124;-84
2023/02/06 05:33:26;;;;;;;24.00;12.48;;;;;;;-5.19;72.20;100481.06;4981677;28;20082;-84
2023/02/06 05:35:51;;;;;;;24.45;11.82;;;;;;;-5.20;71.46;100482.97;4974191;28;20514;-85
2023/02/06 05:38:17;;;;;;;23.52;12.85;;;;;;;-5.14;71.39;100489.47;4972944;28;20408;-84
2023/02/06 05:40:42;;;;;;;25.13;14.57;;;;;;;-5.17;71.20;100489.91;4980547;28;20515;-84
2023/02/06 05:43:08;;;;;;;25.92;12.40;;;;;;;-5.10;70.78;100499.78;4992149;28;20026;-85
2023/02/06 05:45:34;;;;;;;27.23;12.85;;;;;;;-5.09;70.88;100504.19;4988104;28;20105;-82
2023/02/06 05:47:59;;;;;;;27.45;16.27;;;;;;;-5.07;70.17;100501.22;4981752;28;20036;-81
2023/02/06 05:50:25;;;;;;;27.23;14.60;;;;;;;-5.02;70.16;100504.19;4988891;28;20490;-83
2023/02/06 05:52:50;;;;;;;22.70;13.80;;;;;;;-5.06;70.05;100492.03;4992115;28;20413;-82
2023/02/06 05:55:17;;;;;;;23.55;12.90;;;;;;;-5.05;69.96;100490.13;4992521;28;20030;-83
2023/02/06 05:57:43;;;;;;;21.80;12.57;;;;;;;-5.04;69.73;100489.06;4991549;28;20031;-84
2023/02/06 06:00:09;;;;;;;36.75;11.38;;;;;;;-4.88;68.92;100499.63;4991039;28;20563;-84
2023/02/06 06:02:35;;;;;;;25.80;10.82;;;;;;;-4.96;68.32;100494.34;4981657;28;20509;-85
2023/02/06 06:05:00;;;;;;;30.60;13.95;;;;;;;-4.97;68.99;100495.41;4992126;28;20030;-85
2023/02/06 06:07:26;;;;;;;68.60;25.45;;;;;;;-5.13;68.60;100505.66;4987012;28;20110;-85
2023/02/06 06:09:51;;;;;;;62.30;22.25;;;;;;;-5.23;68.71;100511.47;4984070;28;20033;-80
2023/02/06 06:12:17;;;;;;;45.42;18.88;;;;;;;-5.12;67.92;100518.25;4976182;28;20038;-84
2023/02/06 06:14:42;;;;;;;32.65;13.60;;;;;;;-5.02;67.76;100523.31;4985217;28;20041;-80
2023/02/06 06:17:08;;;;;;;27.05;14.52;;;;;;;-4.99;67.90;100522.88;4988090;28;20034;-85
2023/02/06 06:19:33;;;;;;;29.30;14.90;;;;;;;-5.03;67.80;100518.91;4979617;28;20071;-78
2023/02/06 06:21:59;;;;;;;25.40;14.13;;;;;;;-5.02;67.37;100531.50;4974170;28;20073;-80
2023/02/06 06:24:25;;;;;;;23.00;14.00;;;;;;;-5.02;67.70;100528.75;4988386;28;20469;-79
2023/02/06 06:26:51;;;;;;;21.08;12.30;;;;;;;-5.01;67.11;100527.72;4974154;28;20409;-83
2023/02/06 06:29:16;;;;;;;27.55;13.38;;;;;;;-4.96;67.13;100525.19;4980901;28;20038;-84
2023/02/06 06:31:42;;;;;;;35.40;12.98;;;;;;;-4.91;66.53;100540.13;4983047;28;20034;-81
2023/02/06 06:34:07;;;;;;;42.15;15.32;;;;;;;-4.91;67.21;100526.47;4981026;28;20050;-85
2023/02/06 06:36:33;;;;;;;30.70;12.68;;;;;;;-4.79;67.44;100530.28;4976851;28;20113;-83
2023/02/06 06:38:58;;;;;;;23.05;11.80;;;;;;;-4.76;67.07;100529.03;4984877;28;20061;-84
2023/02/06 06:41:24;;;;;;;24.90;12.93;;;;;;;-4.68;66.89;100532.41;4986435;28;20034;-83
2023/02/06 06:43:49;;;;;;;31.75;14.63;;;;;;;-4.71;66.94;100540.16;4987150;28;20573;-86
2023/02/06 06:46:15;;;;;;;36.40;17.27;;;;;;;-4.42;66.92;100535.34;4999795;28;20113;-82
2023/02/06 06:48:40;;;;;;;37.60;15.98;;;;;;;-4.44;65.96;100535.59;4985999;28;20031;-82
2023/02/06 06:51:06;;;;;;;33.40;16.20;;;;;;;-4.45;66.07;100543.97;4984502;28;20030;-82
2023/02/06 06:53:32;;;;;;;30.40;14.02;;;;;;;-4.41;65.72;100547.97;4981565;28;20055;-83
2023/02/06 06:56:05;;;;;;;28.27;12.85;;;;;;;-4.32;65.47;100543.16;4989607;28;20057;-86
2023/02/06 06:58:30;;;;;;;36.55;13.43;;;;;;;-4.11;65.01;100550.28;5002722;28;20556;-83
2023/02/06 07:00:56;;;;;;;34.88;14.63;;;;;;;-4.11;64.60;100544.81;4998866;28;20038;-83
2023/02/06 07:03:21;;;;;;;23.27;12.18;;;;;;;-3.97;63.99;100542.94;4990197;28;20018;-81
2023/02/06 07:05:47;;;;;;;25.50;12.48;;;;;;;-3.95;63.61;100541.63;4988539;28;20472;-86
2023/02/06 07:08:12;;;;;;;21.67;12.85;;;;;;;-3.77;63.43;100542.88;4984245;28;20019;-79
2023/02/06 07:10:38;;;;;;;20.95;9.80;;;;;;;-3.75;62.45;100545.38;4988631;28;20521;-84
2023/02/06 07:13:03;;;;;;;19.55;10.60;;;;;;;-3.73;62.54;100535.09;4988219;28;20413;-82
2023/02/06 07:15:29;;;;;;;32.58;11.52;;;;;;;-3.60;62.40;100542.41;4975941;28;20034;-87
2023/02/06 07:17:54;;;;;;;17.70;10.30;;;;;;;-3.56;62.03;100549.13;4975070;28;20121;-78
2023/02/06 07:20:20;;;;;;;20.25;11.13;;;;;;;-3.43;61.33;100542.78;4978630;28;20526;-80
2023/02/06 07:22:46;;;;;;;20.23;10.57;;;;;;;-3.34;60.57;100546.13;4978899;28;20116;-80
2023/02/06 07:25:12;;;;;;;21.77;10.52;;;;;;;-3.21;60.37;100550.72;4975998;28;20031;-83
2023/02/06 07:27:37;;;;;;;26.90;10.60;;;;;;;-3.20;60.28;100547.75;4972804;28;20088;-79
2023/02/06 07:30:03;;;;;;;13.57;9.60;;;;;;;-3.05;58.20;100552.94;4978133;28;20441;-82
2023/02/06 07:32:29;;;;;;;17.65;8.75;;;;;;;-3.15;57.89;100539.75;4991946;28;20058;-81
2023/02/06 07:34:54;;;;;;;14.35;8.90;;;;;;;-2.94;58.29;100556.06;4982453;28;20084;-81
2023/02/06 07:37:20;;;;;;;20.48;10.25;;;;;;;-2.84;58.11;100556.44;4987323;28;20089;-81
2023/02/06 07:39:45;;;;;;;14.95;7.90;;;;;;;-2.84;57.35;100551.78;4980584;28;20698;-82
2023/02/06 07:42:12;;;;;;;12.23;7.80;;;;;;;-2.71;55.74;100556.34;4986320;28;20576;-85
2023/02/06 07:44:37;;;;;;;10.63;6.63;;;;;;;-2.63;55.38;100557.16;4991956;28;20564;-85
2023/02/06 07:47:04;;;;;;;17.48;7.97;;;;;;;-2.55;55.04;100559.63;4983862;28;20062;-84
2023/02/06 07:49:30;;;;;;;13.93;6.80;;;;;;;-2.48;54.68;100559.56;4990410;28;20045;-78
2023/02/06 07:51:55;;;;;;;32.65;11.45;;;;;;;-2.25;54.73;100567.22;4995090;28;20561;-84
2023/02/06 07:54:21;;;;;;;18.05;9.50;;;;;;;-2.10;53.06;100560.56;4992987;28;20470;-77
2023/02/06 07:56:46;;;;;;;17.30;7.80;;;;;;;-2.21;51.80;100565.69;4985261;28;20509;-76
2023/02/06 07:59:12;;;;;;;12.13;6.45;;;;;;;-2.04;51.39;100562.41;4984183;28;20117;-77
2023/02/06 08:01:37;;;;;;;13.38;7.10;;;;;;;-1.96;51.51;100573.09;4990263;28;20026;-78
2023/02/06 08:04:03;;;;;;;12.55;7.20;;;;;;;-1.92;50.79;100568.84;4993471;28;20030;-77
2023/02/06 08:06:28;;;;;;;11.63;7.07;;;;;;;-1.90;49.87;100576.84;4979227;28;20031;-79
2023/02/06 08:08:55;;;;;;;11.48;6.63;;;;;;;-2.04;49.57;100578.88;4982278;28;20034;-82
2023/02/06 08:11:24;;;;;;;16.40;8.23;;;;;;;-1.87;50.08;100571.75;4984090;28;20026;-80
2023/02/06 08:13:49;;;;;;;14.65;7.82;;;;;;;-1.68;49.73;100573.69;4985718;28;20039;-76
2023/02/06 08:16:21;;;;;;;11.40;7.65;;;;;;;-1.61;49.98;100567.06;4978596;28;20421;-76
2023/02/06 08:18:46;;;;;;;12.85;7.25;;;;;;;-1.51;48.84;100582.97;4992452;28;20031;-78
2023/02/06 08:21:15;;;;;;;13.27;6.90;;;;;;;-1.46;49.36;100574.94;4992614;28;20038;-77
2023/02/06 08:23:41;;;;;;;19.13;8.55;;;;;;;-1.37;49.31;100577.38;4983539;28;20033;-79
2023/02/06 08:26:08;;;;;;;15.63;8.50;;;;;;;-1.34;48.26;100575.00;4990793;28;20041;-83
2023/02/06 08:28:35;;;;;;;21.63;9.95;;;;;;;-1.13;48.99;100578.34;4990897;28;20038;-77
2023/02/06 08:31:07;;;;;;;21.55;10.45;;;;;;;-1.10;46.80;100590.78;4985718;28;20033;-74
2023/02/06 08:33:33;;;;;;;14.80;8.38;;;;;;;-0.99;47.19;100577.09;4984638;28;20541;-76
2023/02/06 08:36:01;;;;;;;9.93;6.40;;;;;;;-1.34;46.32;100574.16;4992100;28;20144;-85
2023/02/06 08:38:26;;;;;;;10.35;5.97;;;;;;;-1.39;46.14;100580.34;4989534;28;20045;-83
2023/02/06 08:40:52;;;;;;;16.75;9.00;;;;;;;-1.16;46.66;100587.06;4974514;28;20027;-79
2023/02/06 08:43:18;;;;;;;7.85;4.57;;;;;;;-1.23;44.99;100586.28;4988697;28;20718;-74
2023/02/06 08:45:47;;;;;;;14.25;5.95;;;;;;;-1.35;46.15;100589.78;4980352;28;20481;-83
2023/02/06 08:48:13;;;;;;;18.10;7.60;;;;;;;-1.17;46.68;100599.94;4989459;28;20042;-75
2023/02/06 08:50:38;;;;;;;17.70;9.88;;;;;;;-1.09;46.88;100587.78;4991881;28;20038;-74
2023/02/06 08:53:04;;;;;;;13.32;8.15;;;;;;;-1.09;46.57;100592.47;4989142;28;20030;-75
2023/02/06 08:55:29;;;;;;;8.73;5.22;;;;;;;-1.13;45.70;100598.44;4987496;28;20050;-72
2023/02/06 08:57:55;;;;;;;8.95;5.60;;;;;;;-1.13;45.31;100592.94;4990981;28;20034;-75
2023/02/06 09:00:20;;;;;;;10.30;4.18;;;;;;;-1.06;44.39;100589.25;4992692;28;20041;-72
2023/02/06 09:02:46;;;;;;;27.00;11.65;;;;;;;-1.03;44.68;100592.38;4982136;28;20422;-77
2023/02/06 09:05:13;;;;;;;15.45;8.43;;;;;;;-0.97;44.09;100596.13;4985971;28;20027;-74
2023/02/06 09:07:38;;;;;;;27.77;12.80;;;;;;;-0.84;44.19;100595.13;4977435;28;20493;-73
2023/02/06 09:10:04;;;;;;;41.28;17.13;;;;;;;-0.67;44.65;100595.28;4981818;28;20038;-77
2023/02/06 09:12:30;;;;;;;11.75;5.85;;;;;;;-0.54;43.33;100583.28;4987525;28;20042;-71
2023/02/06 09:14:55;;;;;;;13.63;7.78;;;;;;;-0.65;42.60;100587.69;4991316;28;20045;-73
2023/02/06 09:17:21;;;;;;;25.73;11.40;;;;;;;-0.54;43.72;100594.28;4987895;28;20049;-78
2023/02/06 09:19:46;;;;;;;15.10;6.72;;;;;;;-0.42;43.92;100588.84;4986626;28;20029;-74
2023/02/06 09:22:12;;;;;;;24.30;8.27;;;;;;;-0.23;42.48;100586.00;4975018;28;20026;-73
2023/02/06 09:24:37;;;;;;;6.43;4.18;;;;;;;-0.19;41.28;100593.56;4984021;28;20039;-74
2023/02/06 09:27:03;;;;;;;5.95;4.65;;;;;;;-0.08;41.98;100594.63;4986130;28;20026;-73
2023/02/06 09:29:30;;;;;;;9.65;6.80;;;;;;;0.17;41.77;100596.34;4973559;28;20490;-73
2023/02/06 09:31:56;;;;;;;10.82;6.30;;;;;;;-0.02;41.40;100595.59;4972998;28;20474;-73
2023/02/06 09:34:24;;;;;;;17.17;8.93;;;;;;;0.07;41.72;100585.94;4985781;28;20065;-73
2023/02/06 09:36:53;;;;;;;11.80;7.95;;;;;;;0.35;41.97;100592.66;4987512;28;20030;-73
2023/02/06 09:39:19;;;;;;;12.18;8.13;;;;;;;0.13;42.42;100585.00;4978609;28;20081;-72
2023/02/06 09:41:55;;;;;;;12.80;7.85;;;;;;;0.19;41.95;100591.47;4986007;28;20038;-71
2023/02/06 09:44:26;;;;;;;11.40;6.60;;;;;;;-0.18;41.99;100583.38;4972378;28;20509;-72
2023/02/06 09:46:58;;;;;;;11.82;6.15;;;;;;;-0.09;42.77;100575.63;4987855;28;20062;-74
2023/02/06 09:49:44;;;;;;;22.75;10.18;;;;;;;0.26;44.26;100574.84;4989833;28;20520;-71
2023/02/06 09:52:27;;;;;;;14.20;7.47;;;;;;;-0.02;43.79;100579.94;4983834;28;20086;-71
2023/02/06 09:55:22;;;;;;;21.40;9.82;;;;;;;-0.04;45.38;100565.59;4983204;28;20042;-73
2023/02/06 09:58:18;;;;;;;14.25;7.95;;;;;;;0.17;46.07;100568.00;4972674;28;20031;-71
2023/02/06 10:00:52;;;;;;;20.90;12.98;;;;;;;0.04;45.01;100567.16;4984178;28;20031;-74
2023/02/06 10:03:18;;;;;;;24.67;11.45;;;;;;;0.24;46.04;100560.44;4986714;28;20062;-77
2023/02/06 10:06:17;;;;;;;13.90;8.15;;;;;;;0.28;45.46;100556.16;4981061;28;20057;-71
2023/02/06 10:08:57;;;;;;;12.35;7.40;;;;;;;0.33;46.04;100533.44;4974939;28;20512;-72
2023/02/06 10:11:57;;;;;;;18.92;9.32;;;;;;;0.16;46.10;100544.31;4987854;28;20038;-71
2023/02/06 10:14:47;;;;;;;24.75;10.43;;;;;;;0.33;46.02;100527.91;4987908;28;20039;-71
2023/02/06 10:17:21;;;;;;;17.27;8.85;;;;;;;0.45;46.12;100528.75;4978576;28;20074;-70
2023/02/06 10:20:09;;;;;;;11.65;7.60;;;;;;;0.54;45.79;100520.94;4998936;28;20512;-71
2023/02/06 10:23:11;;;;;;;14.02;7.65;;;;;;;0.42;44.63;100520.94;4973906;28;20130;-71
2023/02/06 10:25:50;;;;;;;9.63;6.18;;;;;;;0.39;44.84;100507.66;4976343;28;20057;-72
2023/02/06 10:28:21;;;;;;;14.10;10.25;;;;;;;0.56;44.42;100516.03;4987118;28;20116;-73
2023/02/06 10:31:02;;;;;;;13.25;7.82;;;;;;;0.47;44.83;100517.47;4983744;28;20036;-70
2023/02/06 10:33:58;;;;;;;13.43;9.15;;;;;;;0.31;44.74;100510.81;4974099;28;20039;-73
2023/02/06 10:36:29;;;;;;;13.68;9.00;;;;;;;0.49;45.88;100513.41;4977760;28;20069;-72
2023/02/06 10:39:19;;;;;;;23.30;7.97;;;;;;;0.36;44.77;100511.78;4980502;28;20035;-73
2023/02/06 10:41:52;;;;;;;16.38;7.82;;;;;;;0.36;44.76;100503.50;4973044;28;20153;-74
2023/02/06 10:44:36;;;;;;;10.75;6.30;;;;;;;0.19;45.09;100508.91;4987845;28;20464;-72
2023/02/06 10:47:09;;;;;;;17.10;7.18;;;;;;;0.30;44.89;100504.47;4975720;28;20054;-73
2023/02/06 10:49:46;;;;;;;12.63;7.22;;;;;;;0.36;45.00;100498.00;4977640;28;20026;-72
2023/02/06 10:52:26;;;;;;;14.10;6.68;;;;;;;0.51;44.72;100504.91;4988084;28;20141;-75
2023/02/06 10:54:58;;;;;;;13.27;7.65;;;;;;;0.65;44.98;100489.78;4989217;28;20137;-76
2023/02/06 10:57:29;;;;;;;16.42;7.53;;;;;;;0.94;44.27;100486.22;4980810;28;20030;-73
2023/02/06 10:59:59;;;;;;;13.77;7.47;;;;;;;0.91;43.32;100483.97;4978166;28;20050;-73
2023/02/06 11:02:31;;;;;;;17.80;9.60;;;;;;;0.81;43.67;100485.44;4978490;28;20027;-73
2023/02/06 11:05:05;;;;;;;14.50;6.38;;;;;;;0.77;43.38;100480.66;4985307;28;20101;-71
2023/02/06 11:07:38;;;;;;;13.68;7.68;;;;;;;0.71;44.44;100476.97;4983858;28;20516;-74
2023/02/06 11:10:05;;;;;;;20.45;11.93;;;;;;;0.84;44.97;100481.34;4978238;28;20034;-77
2023/02/06 11:12:34;;;;;;;19.88;9.27;;;;;;;0.99;42.92;100472.53;4987907;28;20038;-76
2023/02/06 11:15:11;;;;;;;15.88;8.10;;;;;;;0.66;43.63;100472.19;4987954;28;20034;-72
2023/02/06 11:17:36;;;;;;;31.73;15.65;;;;;;;0.78;42.71;100474.06;4989662;28;20068;-74
2023/02/06 11:20:25;;;;;;;43.58;17.88;;;;;;;0.70;43.53;100469.78;4993666;28;20054;-72
2023/02/06 11:22:50;;;;;;;44.47;21.00;;;;;;;0.99;43.04;100472.53;4988469;28;20026;-72
2023/02/06 11:25:32;;;;;;;27.67;12.10;;;;;;;1.08;43.54;100451.78;4991810;28;20029;-75
2023/02/06 11:27:59;;;;;;;42.50;19.70;;;;;;;0.84;44.05;100457.38;4990209;28;20056;-73